createdAt,value
2022-10-19T00:02:10.600Z,97918.75
2022-10-19T00:04:37.191Z,97911.19
2022-10-19T00:07:09.908Z,97890.72
2022-10-19T00:09:39.135Z,97915.00
2022-10-19T00:12:06.663Z,97932.78
2022-10-19T00:14:34.106Z,97914.72
2022-10-19T00:17:01.831Z,97929.56
2022-10-19T00:19:28.654Z,97914.69
2022-10-19T00:21:55.396Z,97901.47
2022-10-19T00:24:24.023Z,97917.91
2022-10-19T00:26:53.725Z,97910.91
2022-10-19T00:29:20.681Z,97806.91
2022-10-19T00:31:50.057Z,97945.69
2022-10-19T00:34:20.795Z,97932.22
2022-10-19T00:36:47.496Z,97930.06
2022-10-19T00:39:14.982Z,97943.84
2022-10-19T00:41:41.560Z,97912.50
2022-10-19T00:44:32.440Z,97920.88
2022-10-19T00:47:03.478Z,97919.75
2022-10-19T00:49:31.916Z,97945.91
2022-10-19T00:52:03.150Z,97916.50
2022-10-19T00:54:30.520Z,97933.28
2022-10-19T00:56:57.854Z,97951.09
2022-10-19T00:59:24.415Z,97928.97
2022-10-19T01:01:50.949Z,97973.50
2022-10-19T01:04:17.764Z,97953.78
2022-10-19T01:06:44.601Z,97934.03
2022-10-19T01:09:11.221Z,97925.91
2022-10-19T01:11:49.834Z,97950.72
2022-10-19T01:14:34.690Z,97946.13
2022-10-19T01:17:48.862Z,97945.56
2022-10-19T01:20:37.036Z,97949.88
2022-10-19T01:23:31.048Z,97933.63
2022-10-19T01:26:19.207Z,97938.41
2022-10-19T01:28:57.800Z,97915.16
2022-10-19T01:31:31.739Z,97930.00
2022-10-19T01:34:20.189Z,97949.44
2022-10-19T01:37:14.554Z,97930.47
2022-10-19T01:39:45.341Z,97914.50
2022-10-19T01:42:29.043Z,97950.13
2022-10-19T01:45:00.999Z,97920.13
2022-10-19T01:47:31.125Z,97929.53
2022-10-19T01:50:03.351Z,97904.72
2022-10-19T01:52:29.852Z,97908.91
2022-10-19T01:54:57.571Z,97913.75
2022-10-19T01:57:26.949Z,97928.31
2022-10-19T01:59:53.539Z,97927.00
2022-10-19T02:02:20.111Z,97950.22
2022-10-19T02:04:47.328Z,97907.78
2022-10-19T02:07:13.834Z,97927.19
2022-10-19T02:09:40.322Z,97921.28
2022-10-19T02:12:09.362Z,97916.69
2022-10-19T02:14:56.605Z,97900.22
2022-10-19T02:17:28.677Z,97907.75
2022-10-19T02:19:55.220Z,97906.69
2022-10-19T02:22:22.264Z,97895.63
2022-10-19T02:24:48.780Z,97895.72
2022-10-19T02:27:15.367Z,97892.78
2022-10-19T02:29:41.881Z,97885.00
2022-10-19T02:32:09.986Z,97895.03
2022-10-19T02:34:36.641Z,97900.41
2022-10-19T02:37:03.134Z,97905.56
2022-10-19T02:39:29.673Z,97871.19
2022-10-19T02:42:14.318Z,97883.09
2022-10-19T02:44:56.288Z,97891.22
2022-10-19T02:47:37.080Z,97880.66
2022-10-19T02:50:07.340Z,97893.84
2022-10-19T02:52:33.875Z,97896.81
2022-10-19T02:55:00.424Z,97883.25
2022-10-19T02:57:27.253Z,97886.75
2022-10-19T02:59:53.871Z,97889.16
2022-10-19T03:02:20.555Z,97895.13
2022-10-19T03:07:15.651Z,97899.72
2022-10-19T03:09:42.723Z,97867.28
2022-10-19T03:12:09.583Z,97886.47
2022-10-19T03:14:36.046Z,97898.88
2022-10-19T03:17:02.896Z,97872.69
2022-10-19T03:19:29.483Z,97870.53
2022-10-19T03:21:56.047Z,97877.00
2022-10-19T03:24:22.800Z,97879.16
2022-10-19T03:26:49.612Z,97877.06
2022-10-19T03:29:16.181Z,97866.47
2022-10-19T03:31:42.744Z,97876.19
2022-10-19T03:34:09.279Z,97861.63
2022-10-19T03:36:37.330Z,97840.81
2022-10-19T03:39:05.932Z,97849.22
2022-10-19T03:41:33.921Z,97844.69
2022-10-19T03:46:27.097Z,97840.34
2022-10-19T03:48:54.060Z,97859.00
2022-10-19T03:51:22.363Z,97856.56
2022-10-19T03:53:52.356Z,97856.31
2022-10-19T03:56:20.477Z,97865.25
2022-10-19T03:58:47.949Z,97855.56
2022-10-19T04:01:22.620Z,97855.00
2022-10-19T04:03:53.703Z,97869.09
2022-10-19T04:06:22.070Z,97864.22
2022-10-19T04:08:48.891Z,97852.31
2022-10-19T04:11:23.080Z,97850.19
2022-10-19T04:13:50.515Z,97862.88
2022-10-19T04:16:17.192Z,97864.22
2022-10-19T04:18:43.789Z,97857.50
2022-10-19T04:21:48.106Z,97862.09
2022-10-19T04:24:15.851Z,97856.16
2022-10-19T04:26:50.089Z,97856.44
2022-10-19T04:29:17.321Z,97857.00
2022-10-19T04:31:43.854Z,97861.03
2022-10-19T04:34:10.439Z,97844.53
2022-10-19T04:36:37.360Z,97881.00
2022-10-19T04:39:04.831Z,97859.94
2022-10-19T04:41:31.428Z,97856.97
2022-10-19T04:43:58.806Z,97839.94
2022-10-19T04:46:25.740Z,97816.25
2022-10-19T04:48:52.707Z,97849.75
2022-10-19T04:51:19.394Z,97857.84
2022-10-19T04:53:46.313Z,97862.22
2022-10-19T04:56:23.445Z,97844.91
2022-10-19T04:58:50.062Z,97871.34
2022-10-19T05:01:20.779Z,97879.78
2022-10-19T05:03:47.720Z,97838.44
2022-10-19T05:06:14.836Z,97840.38
2022-10-19T05:08:41.498Z,97846.88
2022-10-19T05:11:11.042Z,97851.00
2022-10-19T05:13:37.692Z,97853.16
2022-10-19T05:16:05.030Z,97852.13
2022-10-19T05:18:31.747Z,97829.44
2022-10-19T05:21:05.479Z,97881.56
2022-10-19T05:26:14.284Z,97844.00
2022-10-19T05:28:41.017Z,97864.78
2022-10-19T05:31:12.336Z,97844.28
2022-10-19T05:33:38.932Z,97847.78
2022-10-19T05:36:18.701Z,97845.09
2022-10-19T05:38:45.949Z,97844.84
2022-10-19T05:41:12.749Z,97841.34
2022-10-19T05:43:40.251Z,97857.84
2022-10-19T05:46:08.054Z,97843.28
2022-10-19T05:48:34.905Z,97860.53
2022-10-19T05:51:01.929Z,97867.84
2022-10-19T05:53:29.978Z,97859.19
2022-10-19T05:55:56.586Z,97839.75
2022-10-19T05:58:23.186Z,97834.94
2022-10-19T06:00:57.953Z,97853.03
2022-10-19T06:03:24.651Z,97835.75
2022-10-19T06:05:51.705Z,97852.22
2022-10-19T06:08:18.352Z,97850.84
2022-10-19T06:10:45.109Z,97864.59
2022-10-19T06:13:11.670Z,97851.84
2022-10-19T06:15:38.279Z,97824.88
2022-10-19T06:18:04.880Z,97866.75
2022-10-19T06:20:31.367Z,97854.59
2022-10-19T06:22:57.904Z,97869.44
2022-10-19T06:25:24.491Z,97864.34
2022-10-19T06:27:51.131Z,97864.09
2022-10-19T06:30:17.902Z,97884.56
2022-10-19T06:32:44.395Z,97862.41
2022-10-19T06:35:10.898Z,97871.03
2022-10-19T06:37:37.596Z,97858.88
2022-10-19T06:40:07.073Z,97866.50
2022-10-19T06:42:33.862Z,97882.13
2022-10-19T06:45:00.857Z,97885.66
2022-10-19T06:47:27.410Z,97892.09
2022-10-19T06:49:54.011Z,97883.72
2022-10-19T06:52:20.531Z,97910.47
2022-10-19T06:54:47.088Z,97910.50
2022-10-19T06:57:13.670Z,97942.09
2022-10-19T06:59:40.162Z,97908.84
2022-10-19T07:02:06.702Z,97913.44
2022-10-19T07:04:33.241Z,97916.38
2022-10-19T07:06:59.718Z,97900.00
2022-10-19T07:09:26.181Z,97928.03
2022-10-19T07:11:52.662Z,97920.16
2022-10-19T07:14:19.847Z,97922.31
2022-10-19T07:16:46.388Z,97902.00
2022-10-19T07:19:12.911Z,97917.66
2022-10-19T07:21:39.607Z,97918.75
2022-10-19T07:24:06.410Z,97929.53
2022-10-19T07:26:33.092Z,97923.06
2022-10-19T07:29:00.783Z,97914.97
2022-10-19T07:31:28.177Z,97931.13
2022-10-19T07:34:07.043Z,97915.16
2022-10-19T07:36:48.159Z,97922.50
2022-10-19T07:39:27.032Z,97912.78
2022-10-19T07:41:53.861Z,97921.44
2022-10-19T07:44:21.986Z,97918.97
2022-10-19T07:46:48.701Z,97914.34
2022-10-19T07:49:15.615Z,97937.78
2022-10-19T07:51:42.632Z,97925.59
2022-10-19T07:54:09.387Z,97930.78
2022-10-19T07:56:36.282Z,97943.16
2022-10-19T07:59:03.602Z,97924.19
2022-10-19T08:01:32.254Z,97942.56
2022-10-19T08:04:55.563Z,97926.31
2022-10-19T08:06:45.908Z,97926.59
2022-10-19T08:09:27.706Z,97936.13
2022-10-19T08:11:59.445Z,97915.47
2022-10-19T08:14:26.095Z,97928.00
2022-10-19T08:16:52.804Z,97916.22
2022-10-19T08:19:19.445Z,97935.44
2022-10-19T08:21:46.690Z,97915.66
2022-10-19T08:24:14.780Z,97933.25
2022-10-19T08:26:41.658Z,97914.78
2022-10-19T08:29:14.454Z,97912.31
2022-10-19T08:31:41.593Z,97910.56
2022-10-19T08:34:08.563Z,97942.38
2022-10-19T08:36:35.347Z,97905.53
2022-10-19T08:39:03.733Z,97893.34
2022-10-19T08:41:40.857Z,97912.47
2022-10-19T08:44:45.923Z,97929.66
2022-10-19T08:47:23.560Z,97929.38
2022-10-19T08:49:51.270Z,97917.69
2022-10-19T08:52:34.650Z,97911.06
2022-10-19T08:55:10.264Z,97916.50
2022-10-19T08:57:40.656Z,97931.13
2022-10-19T09:00:28.624Z,97915.38
2022-10-19T09:03:05.510Z,97921.91
2022-10-19T09:05:45.594Z,97920.81
2022-10-19T09:08:16.812Z,97917.56
2022-10-19T09:10:45.665Z,97913.47
2022-10-19T09:13:41.368Z,97918.38
2022-10-19T09:16:19.221Z,97911.31
2022-10-19T09:18:46.050Z,97917.75
2022-10-19T09:21:26.037Z,97926.72
2022-10-19T09:24:29.801Z,97889.81
2022-10-19T09:26:58.696Z,97902.13
2022-10-19T09:29:32.833Z,97936.19
2022-10-19T09:32:01.220Z,97921.88
2022-10-19T09:34:36.600Z,97908.34
2022-10-19T09:37:03.342Z,97911.19
2022-10-19T09:39:30.351Z,97911.63
2022-10-19T09:41:59.245Z,97907.03
2022-10-19T09:44:26.402Z,97916.91
2022-10-19T09:46:52.965Z,97911.69
2022-10-19T09:49:20.149Z,97928.59
2022-10-19T09:51:51.515Z,97918.38
2022-10-19T09:54:26.116Z,97928.66
2022-10-19T09:56:54.101Z,97921.56
2022-10-19T09:59:24.813Z,97922.13
2022-10-19T10:02:19.588Z,97933.47
2022-10-19T10:04:57.064Z,97954.09
2022-10-19T10:07:25.919Z,97952.91
2022-10-19T10:09:52.673Z,97927.19
2022-10-19T10:12:19.355Z,97929.44
2022-10-19T10:14:46.054Z,97933.69
2022-10-19T10:17:17.954Z,97936.44
2022-10-19T10:20:16.987Z,97939.47
2022-10-19T10:22:44.850Z,97936.16
2022-10-19T10:25:13.786Z,97950.34
2022-10-19T10:27:40.574Z,97921.97
2022-10-19T10:30:15.872Z,97929.31
2022-10-19T10:32:49.678Z,97924.44
2022-10-19T10:35:18.328Z,97910.13
2022-10-19T10:37:45.923Z,97929.00
2022-10-19T10:40:27.991Z,97916.69
2022-10-19T10:42:56.509Z,97907.66
2022-10-19T10:45:24.410Z,97915.25
2022-10-19T10:47:51.311Z,97894.25
2022-10-19T10:50:25.554Z,97901.66
2022-10-19T10:53:01.935Z,97882.59
2022-10-19T10:55:29.435Z,97892.66
2022-10-19T10:58:24.259Z,97881.47
2022-10-19T11:00:53.472Z,97895.53
2022-10-19T11:03:26.903Z,97895.38
2022-10-19T11:05:56.100Z,97891.06
2022-10-19T11:08:43.875Z,97876.44
2022-10-19T11:11:21.649Z,97894.56
2022-10-19T11:14:05.441Z,97845.44
2022-10-19T11:16:34.608Z,97879.78
2022-10-19T11:19:27.568Z,97853.38
2022-10-19T11:21:57.221Z,97896.38
2022-10-19T11:24:52.334Z,97877.03
2022-10-19T11:27:42.425Z,97888.94
2022-10-19T11:30:17.824Z,97847.06
2022-10-19T11:32:46.043Z,97835.97
2022-10-19T11:35:46.140Z,97827.66
2022-10-19T11:38:29.811Z,97847.69
2022-10-19T11:41:18.300Z,97841.72
2022-10-19T11:43:57.626Z,97825.22
2022-10-19T11:46:38.017Z,97813.84
2022-10-19T11:49:35.317Z,97826.03
2022-10-19T11:52:07.177Z,97821.69
2022-10-19T11:54:48.841Z,97826.16
2022-10-19T11:57:26.430Z,97788.63
2022-10-19T12:00:03.570Z,97816.22
2022-10-19T12:03:28.140Z,97802.44
2022-10-19T12:06:08.955Z,97795.66
2022-10-19T12:08:56.079Z,97786.03
2022-10-19T12:11:59.752Z,97797.13
2022-10-19T12:14:28.012Z,97798.25
2022-10-19T12:16:56.541Z,97792.13
2022-10-19T12:19:29.209Z,97813.47
2022-10-19T12:21:59.166Z,97757.66
2022-10-19T12:24:25.801Z,97788.31
2022-10-19T12:26:53.162Z,97788.06
2022-10-19T12:29:24.888Z,97805.84
2022-10-19T12:31:52.490Z,97783.88
2022-10-19T12:34:56.042Z,97802.25
2022-10-19T12:37:33.853Z,97783.19
2022-10-19T12:40:28.010Z,97804.31
2022-10-19T12:43:00.948Z,97764.56
2022-10-19T12:45:34.953Z,97644.66
2022-10-19T12:48:10.489Z,97776.38
2022-10-19T12:50:49.132Z,97739.66
2022-10-19T12:53:31.053Z,97769.63
2022-10-19T12:56:05.370Z,97746.03
2022-10-19T12:58:36.389Z,97761.59
2022-10-19T13:01:04.514Z,97770.88
2022-10-19T13:03:36.083Z,97753.41
2022-10-19T13:06:11.345Z,97780.69
2022-10-19T13:08:53.095Z,97757.75
2022-10-19T13:11:19.669Z,97723.47
2022-10-19T13:14:02.863Z,97762.78
2022-10-19T13:16:29.293Z,97714.69
2022-10-19T13:19:01.816Z,97770.53
2022-10-19T13:21:53.807Z,97737.13
2022-10-19T13:24:26.533Z,97742.25
2022-10-19T13:27:02.047Z,97761.97
2022-10-19T13:29:37.545Z,97720.69
2022-10-19T13:32:42.158Z,97740.44
2022-10-19T13:35:26.899Z,97731.84
2022-10-19T13:38:15.026Z,97746.13
2022-10-19T13:41:13.798Z,97727.94
2022-10-19T13:44:02.183Z,97741.69
2022-10-19T13:46:28.653Z,97749.34
2022-10-19T13:48:55.186Z,97737.91
2022-10-19T13:51:30.836Z,97741.69
2022-10-19T13:54:09.581Z,97702.94
2022-10-19T13:56:52.856Z,97727.88
2022-10-19T13:59:45.585Z,97726.81
2022-10-19T14:02:24.193Z,97718.50
2022-10-19T14:05:14.884Z,97727.34
2022-10-19T14:07:52.812Z,97738.94
2022-10-19T14:10:21.003Z,97710.38
2022-10-19T14:12:47.728Z,97700.09
2022-10-19T14:15:22.086Z,97710.84
2022-10-19T14:17:48.668Z,97712.59
2022-10-19T14:20:55.317Z,97703.13
2022-10-19T14:23:32.217Z,97718.22
2022-10-19T14:26:25.575Z,97691.09
2022-10-19T14:28:53.177Z,97711.44
2022-10-19T14:31:21.834Z,97708.38
2022-10-19T14:33:51.085Z,97695.47
2022-10-19T14:36:21.237Z,97688.81
2022-10-19T14:38:51.117Z,97721.53
2022-10-19T14:41:37.962Z,97712.31
2022-10-19T14:44:33.122Z,97710.97
2022-10-19T14:47:01.169Z,97701.13
2022-10-19T14:49:27.869Z,97691.25
2022-10-19T14:51:56.104Z,97691.41
2022-10-19T14:54:31.877Z,97701.09
2022-10-19T14:57:22.597Z,97684.91
2022-10-19T14:59:54.887Z,97692.03
2022-10-19T15:02:41.555Z,97652.63
2022-10-19T15:05:19.364Z,97660.75
2022-10-19T15:07:45.998Z,97683.16
2022-10-19T15:10:41.963Z,97669.94
2022-10-19T15:13:41.258Z,97666.84
2022-10-19T15:16:27.163Z,97669.38
2022-10-19T15:18:54.095Z,97667.84
2022-10-19T15:21:21.211Z,97673.28
2022-10-19T15:23:49.352Z,97647.03
2022-10-19T15:26:28.579Z,97634.34
2022-10-19T15:29:06.712Z,97686.28
2022-10-19T15:31:33.431Z,97660.16
2022-10-19T15:34:01.324Z,97651.53
2022-10-19T15:36:29.309Z,97676.88
2022-10-19T15:39:17.603Z,97675.69
2022-10-19T15:41:50.027Z,97662.53
2022-10-19T15:44:53.412Z,97664.06
2022-10-19T15:47:21.953Z,97651.59
2022-10-19T15:49:56.179Z,97670.50
2022-10-19T15:52:24.143Z,97665.50
2022-10-19T15:54:52.043Z,97675.22
2022-10-19T15:57:22.292Z,97668.91
2022-10-19T15:59:49.044Z,97642.97
2022-10-19T16:02:15.857Z,97639.44
2022-10-19T16:04:42.633Z,97651.72
2022-10-19T16:07:13.260Z,97651.19
2022-10-19T16:09:39.957Z,97644.22
2022-10-19T16:12:06.775Z,97637.06
2022-10-19T16:14:36.436Z,97651.84
2022-10-19T16:17:04.227Z,97638.03
2022-10-19T16:19:30.953Z,97640.44
2022-10-19T16:21:57.652Z,97649.44
2022-10-19T16:24:24.362Z,97630.09
2022-10-19T16:26:51.314Z,97650.63
2022-10-19T16:29:17.969Z,97656.94
2022-10-19T16:31:44.938Z,97635.78
2022-10-19T16:34:12.068Z,97643.25
2022-10-19T16:36:38.721Z,97644.41
2022-10-19T16:39:05.407Z,97647.50
2022-10-19T16:41:32.182Z,97675.16
2022-10-19T16:43:59.026Z,97650.69
2022-10-19T16:46:26.073Z,97630.81
2022-10-19T16:48:52.881Z,97644.69
2022-10-19T16:51:26.347Z,97661.25
2022-10-19T16:53:55.281Z,97662.88
2022-10-19T16:56:22.088Z,97667.81
2022-10-19T16:58:48.666Z,97659.00
2022-10-19T17:01:17.667Z,97652.03
2022-10-19T17:03:45.106Z,97653.69
2022-10-19T17:06:11.821Z,97641.53
2022-10-19T17:09:14.339Z,97652.97
2022-10-19T17:11:30.095Z,97669.94
2022-10-19T17:13:58.136Z,97665.34
2022-10-19T17:16:27.880Z,97671.31
2022-10-19T17:18:55.548Z,97660.88
2022-10-19T17:21:23.889Z,97683.78
2022-10-19T17:23:58.702Z,97673.03
2022-10-19T17:26:29.765Z,97676.25
2022-10-19T17:28:56.502Z,97652.56
2022-10-19T17:31:23.401Z,97654.72
2022-10-19T17:33:50.058Z,97674.34
2022-10-19T17:36:27.431Z,97678.16
2022-10-19T17:38:57.097Z,97641.81
2022-10-19T17:41:25.442Z,97681.66
2022-10-19T17:43:52.601Z,97664.16
2022-10-19T17:46:22.901Z,97671.44
2022-10-19T17:48:49.929Z,97672.25
2022-10-19T17:51:21.775Z,97651.78
2022-10-19T17:53:48.787Z,97638.88
2022-10-19T17:56:20.401Z,97670.88
2022-10-19T17:58:47.532Z,97640.47
2022-10-19T18:01:23.858Z,97634.81
2022-10-19T18:03:50.758Z,97667.31
2022-10-19T18:06:19.405Z,97654.13
2022-10-19T18:08:48.005Z,97644.94
2022-10-19T18:11:17.294Z,97652.78
2022-10-19T18:13:43.911Z,97647.16
2022-10-19T18:16:14.601Z,97637.97
2022-10-19T18:18:42.372Z,97634.72
2022-10-19T18:21:10.729Z,97647.31
2022-10-19T18:23:37.645Z,97620.41
2022-10-19T18:26:05.831Z,97630.34
2022-10-19T18:28:32.706Z,97619.31
2022-10-19T18:31:10.546Z,97649.97
2022-10-19T18:33:37.371Z,97629.78
2022-10-19T18:36:04.696Z,97619.56
2022-10-19T18:38:31.781Z,97611.50
2022-10-19T18:41:04.738Z,97631.09
2022-10-19T18:43:31.341Z,97630.53
2022-10-19T18:45:59.086Z,97617.34
2022-10-19T18:48:26.837Z,97626.72
2022-10-19T18:50:53.437Z,97615.69
2022-10-19T18:53:20.319Z,97618.88
2022-10-19T18:55:57.770Z,97606.78
2022-10-19T18:58:24.500Z,97609.22
2022-10-19T19:00:52.165Z,97620.47
2022-10-19T19:03:19.660Z,97627.22
2022-10-19T19:05:46.234Z,97638.44
2022-10-19T19:08:13.357Z,97628.25
2022-10-19T19:10:40.132Z,97632.88
2022-10-19T19:13:06.843Z,97630.19
2022-10-19T19:15:33.504Z,97627.16
2022-10-19T19:18:00.202Z,97627.34
2022-10-19T19:20:26.925Z,97620.56
2022-10-19T19:22:53.620Z,97622.97
2022-10-19T19:25:20.384Z,97616.19
2022-10-19T19:27:46.937Z,97652.78
2022-10-19T19:30:14.324Z,97646.72
2022-10-19T19:32:41.158Z,97657.41
2022-10-19T19:35:07.953Z,97626.69
2022-10-19T19:37:36.253Z,97632.59
2022-10-19T19:40:03.484Z,97630.41
2022-10-19T19:42:30.070Z,97632.34
2022-10-19T19:44:56.706Z,97631.22
2022-10-19T19:47:23.415Z,97635.41
2022-10-19T19:49:50.142Z,97621.22
2022-10-19T19:52:17.074Z,97616.31
2022-10-19T19:54:43.871Z,97623.25
2022-10-19T19:57:10.611Z,97600.72
2022-10-19T19:59:37.487Z,97637.28
2022-10-19T20:02:04.172Z,97605.34
2022-10-19T20:04:31.542Z,97621.66
2022-10-19T20:06:58.237Z,97615.13
2022-10-19T20:09:26.505Z,97622.00
2022-10-19T20:11:53.312Z,97634.06
2022-10-19T20:14:21.982Z,97646.09
2022-10-19T20:16:48.645Z,97638.03
2022-10-19T20:19:15.412Z,97643.38
2022-10-19T20:21:52.920Z,97619.78
2022-10-19T20:24:20.274Z,97620.88
2022-10-19T20:26:47.574Z,97639.72
2022-10-19T20:29:14.164Z,97648.34
2022-10-19T20:31:41.511Z,97630.00
2022-10-19T20:34:09.601Z,97647.44
2022-10-19T20:36:36.294Z,97633.66
2022-10-19T20:39:03.250Z,97637.63
2022-10-19T20:41:29.923Z,97635.06
2022-10-19T20:43:56.934Z,97648.53
2022-10-19T20:46:25.967Z,97626.72
2022-10-19T20:48:52.844Z,97630.44
2022-10-19T20:51:26.124Z,97640.78
2022-10-19T20:53:56.455Z,97641.84
2022-10-19T20:56:25.349Z,97625.75
2022-10-19T20:58:59.876Z,97601.81
2022-10-19T21:01:26.978Z,97627.56
2022-10-19T21:03:55.052Z,97602.59
2022-10-19T21:06:23.232Z,97609.00
2022-10-19T21:08:50.115Z,97600.75
2022-10-19T21:11:18.706Z,97626.72
2022-10-19T21:13:45.728Z,97585.66
2022-10-19T21:16:16.989Z,97599.84
2022-10-19T21:18:44.071Z,97605.16
2022-10-19T21:21:18.725Z,97602.88
2022-10-19T21:23:46.274Z,97602.00
2022-10-19T21:26:13.007Z,97582.13
2022-10-19T21:28:40.069Z,97588.25
2022-10-19T21:31:07.988Z,97601.81
2022-10-19T21:33:34.959Z,97619.25
2022-10-19T21:36:04.881Z,97594.09
2022-10-19T21:38:31.633Z,97606.50
2022-10-19T21:41:04.527Z,97609.97
2022-10-19T21:43:31.405Z,97619.31
2022-10-19T21:45:58.135Z,97621.75
2022-10-19T21:48:24.789Z,97602.56
2022-10-19T21:50:51.475Z,97595.50
2022-10-19T21:53:21.571Z,97604.59
2022-10-19T21:55:48.317Z,97625.94
2022-10-19T21:58:15.052Z,97644.44
2022-10-19T22:00:41.819Z,97615.81
2022-10-19T22:03:08.604Z,97621.16
2022-10-19T22:05:35.215Z,97613.22
2022-10-19T22:08:01.916Z,97590.75
2022-10-19T22:10:28.650Z,97600.19
2022-10-19T22:12:55.690Z,97596.63
2022-10-19T22:15:22.227Z,97600.38
2022-10-19T22:17:48.792Z,97618.44
2022-10-19T22:20:15.509Z,97611.88
2022-10-19T22:22:42.140Z,97612.63
2022-10-19T22:25:08.953Z,97616.84
2022-10-19T22:27:35.600Z,97619.31
2022-10-19T22:30:02.209Z,97616.25
2022-10-19T22:32:28.991Z,97596.13
2022-10-19T22:34:55.729Z,97592.88
2022-10-19T22:37:22.439Z,97579.81
2022-10-19T22:39:49.178Z,97584.19
2022-10-19T22:42:15.808Z,97582.56
2022-10-19T22:44:42.483Z,97604.03
2022-10-19T22:47:09.034Z,97585.41
2022-10-19T22:49:35.724Z,97598.16
2022-10-19T22:52:02.401Z,97571.03
2022-10-19T22:54:29.257Z,97588.44
2022-10-19T22:56:55.898Z,97576.41
2022-10-19T22:59:22.604Z,97587.97
2022-10-19T23:01:49.374Z,97563.03
2022-10-19T23:04:16.073Z,97576.44
2022-10-19T23:06:42.750Z,97551.47
2022-10-19T23:09:09.367Z,97598.16
2022-10-19T23:11:36.111Z,97558.28
2022-10-19T23:14:02.818Z,97580.56
2022-10-19T23:16:30.257Z,97551.88
2022-10-19T23:18:56.864Z,97554.47
2022-10-19T23:21:25.126Z,97593.00
2022-10-19T23:23:51.729Z,97554.91
2022-10-19T23:26:19.344Z,97554.22
2022-10-19T23:28:46.818Z,97578.34
2022-10-19T23:31:17.119Z,97577.38
2022-10-19T23:33:43.721Z,97576.06
2022-10-19T23:36:20.249Z,97588.72
2022-10-19T23:38:47.734Z,97601.34
2022-10-19T23:41:14.624Z,97577.81
2022-10-19T23:43:41.364Z,97573.56
2022-10-19T23:46:08.006Z,97559.13
2022-10-19T23:48:34.997Z,97560.09
2022-10-19T23:51:03.324Z,97563.03
2022-10-19T23:53:34.668Z,97571.03
2022-10-19T23:56:08.209Z,97568.38
2022-10-19T23:58:35.251Z,97566.00
